sensor_id;sensor_type;location;lat;lon;timestamp;P1;durP1;ratioP1;P2;durP2;ratioP2
3563;SDS011;1796;52.388;13.096;2023-09-12T00:00:45;30.33;;;13.50;;
3563;SDS011;1796;52.388;13.096;2023-09-12T00:03:12;18.83;;;12.43;;
3563;SDS011;1796;52.388;13.096;2023-09-12T00:05:39;25.13;;;12.10;;
3563;SDS011;1796;52.388;13.096;2023-09-12T00:08:05;13.03;;;11.07;;
3563;SDS011;1796;52.388;13.096;2023-09-12T00:10:32;16.70;;;11.37;;
3563;SDS011;1796;52.388;13.096;2023-09-12T00:12:59;19.43;;;12.03;;
3563;SDS011;1796;52.388;13.096;2023-09-12T00:15:28;19.93;;;13.00;;
3563;SDS011;1796;52.388;13.096;2023-09-12T00:17:55;17.77;;;12.10;;
3563;SDS011;1796;52.388;13.096;2023-09-12T00:20:22;13.27;;;11.97;;
3563;SDS011;1796;52.388;13.096;2023-09-12T00:22:49;15.10;;;11.20;;
3563;SDS011;1796;52.388;13.096;2023-09-12T00:25:18;22.67;;;13.03;;
3563;SDS011;1796;52.388;13.096;2023-09-12T00:27:45;23.43;;;11.63;;
3563;SDS011;1796;52.388;13.096;2023-09-12T00:30:13;14.23;;;11.97;;
3563;SDS011;1796;52.388;13.096;2023-09-12T00:32:41;15.90;;;12.27;;
3563;SDS011;1796;52.388;13.096;2023-09-12T00:35:08;20.57;;;13.00;;
3563;SDS011;1796;52.388;13.096;2023-09-12T00:37:35;15.33;;;12.53;;
3563;SDS011;1796;52.388;13.096;2023-09-12T00:40:03;16.90;;;12.10;;
3563;SDS011;1796;52.388;13.096;2023-09-12T00:42:30;18.70;;;12.60;;
3563;SDS011;1796;52.388;13.096;2023-09-12T00:44:57;18.33;;;12.20;;
3563;SDS011;1796;52.388;13.096;2023-09-12T00:47:24;22.57;;;13.80;;
3563;SDS011;1796;52.388;13.096;2023-09-12T00:49:53;19.63;;;11.77;;
3563;SDS011;1796;52.388;13.096;2023-09-12T00:52:21;17.20;;;12.47;;
3563;SDS011;1796;52.388;13.096;2023-09-12T00:54:50;27.10;;;12.50;;
3563;SDS011;1796;52.388;13.096;2023-09-12T00:57:17;18.97;;;12.03;;
3563;SDS011;1796;52.388;13.096;2023-09-12T00:59:44;17.00;;;11.87;;
3563;SDS011;1796;52.388;13.096;2023-09-12T01:02:12;13.37;;;11.70;;
3563;SDS011;1796;52.388;13.096;2023-09-12T01:04:39;22.97;;;12.67;;
3563;SDS011;1796;52.388;13.096;2023-09-12T01:07:07;15.53;;;12.10;;
3563;SDS011;1796;52.388;13.096;2023-09-12T01:09:34;18.60;;;11.90;;
3563;SDS011;1796;52.388;13.096;2023-09-12T01:12:01;18.93;;;12.13;;
3563;SDS011;1796;52.388;13.096;2023-09-12T01:14:28;19.30;;;12.67;;
3563;SDS011;1796;52.388;13.096;2023-09-12T01:16:55;17.37;;;12.43;;
3563;SDS011;1796;52.388;13.096;2023-09-12T01:19:23;11.93;;;10.70;;
3563;SDS011;1796;52.388;13.096;2023-09-12T01:22:07;21.80;;;11.53;;
3563;SDS011;1796;52.388;13.096;2023-09-12T01:27:55;23.70;;;11.30;;
3563;SDS011;1796;52.388;13.096;2023-09-12T01:30:28;17.60;;;11.87;;
3563;SDS011;1796;52.388;13.096;2023-09-12T01:32:58;21.57;;;11.93;;
3563;SDS011;1796;52.388;13.096;2023-09-12T01:35:26;20.13;;;11.60;;
3563;SDS011;1796;52.388;13.096;2023-09-12T01:37:53;12.90;;;11.57;;
3563;SDS011;1796;52.388;13.096;2023-09-12T01:40:20;13.10;;;11.13;;
3563;SDS011;1796;52.388;13.096;2023-09-12T01:43:01;19.53;;;12.63;;
3563;SDS011;1796;52.388;13.096;2023-09-12T01:45:30;14.27;;;11.90;;
3563;SDS011;1796;52.388;13.096;2023-09-12T01:47:57;16.90;;;12.40;;
3563;SDS011;1796;52.388;13.096;2023-09-12T01:50:25;20.90;;;12.23;;
3563;SDS011;1796;52.388;13.096;2023-09-12T01:52:54;17.77;;;12.07;;
3563;SDS011;1796;52.388;13.096;2023-09-12T01:55:21;18.23;;;12.70;;
3563;SDS011;1796;52.388;13.096;2023-09-12T01:57:49;14.13;;;12.00;;
3563;SDS011;1796;52.388;13.096;2023-09-12T02:00:18;21.40;;;12.73;;
3563;SDS011;1796;52.388;13.096;2023-09-12T02:02:45;19.37;;;13.40;;
3563;SDS011;1796;52.388;13.096;2023-09-12T02:05:13;16.67;;;13.00;;
3563;SDS011;1796;52.388;13.096;2023-09-12T02:07:43;14.50;;;11.87;;
3563;SDS011;1796;52.388;13.096;2023-09-12T02:10:11;13.30;;;12.00;;
3563;SDS011;1796;52.388;13.096;2023-09-12T02:12:38;15.40;;;12.53;;
3563;SDS011;1796;52.388;13.096;2023-09-12T02:15:05;17.47;;;12.73;;
3563;SDS011;1796;52.388;13.096;2023-09-12T02:17:34;20.63;;;12.40;;
3563;SDS011;1796;52.388;13.096;2023-09-12T02:20:04;16.97;;;11.60;;
3563;SDS011;1796;52.388;13.096;2023-09-12T02:22:32;13.70;;;12.30;;
3563;SDS011;1796;52.388;13.096;2023-09-12T02:24:59;16.83;;;11.27;;
3563;SDS011;1796;52.388;13.096;2023-09-12T02:27:25;15.53;;;12.00;;
3563;SDS011;1796;52.388;13.096;2023-09-12T02:29:52;17.30;;;14.03;;
3563;SDS011;1796;52.388;13.096;2023-09-12T02:32:20;15.47;;;12.70;;
3563;SDS011;1796;52.388;13.096;2023-09-12T02:34:48;15.73;;;13.07;;
3563;SDS011;1796;52.388;13.096;2023-09-12T02:37:15;14.10;;;12.60;;
3563;SDS011;1796;52.388;13.096;2023-09-12T02:39:42;16.27;;;12.57;;
3563;SDS011;1796;52.388;13.096;2023-09-12T02:42:09;18.40;;;12.73;;
3563;SDS011;1796;52.388;13.096;2023-09-12T02:44:35;16.47;;;12.27;;
3563;SDS011;1796;52.388;13.096;2023-09-12T02:47:03;18.27;;;13.83;;
3563;SDS011;1796;52.388;13.096;2023-09-12T02:49:30;16.97;;;12.60;;
3563;SDS011;1796;52.388;13.096;2023-09-12T02:51:58;16.20;;;12.87;;
3563;SDS011;1796;52.388;13.096;2023-09-12T02:54:25;16.23;;;12.60;;
3563;SDS011;1796;52.388;13.096;2023-09-12T02:56:51;14.30;;;12.30;;
3563;SDS011;1796;52.388;13.096;2023-09-12T02:59:18;13.87;;;12.20;;
3563;SDS011;1796;52.388;13.096;2023-09-12T03:01:45;20.90;;;12.77;;
3563;SDS011;1796;52.388;13.096;2023-09-12T03:04:12;17.20;;;13.87;;
3563;SDS011;1796;52.388;13.096;2023-09-12T03:06:39;16.20;;;13.27;;
3563;SDS011;1796;52.388;13.096;2023-09-12T03:09:07;16.40;;;11.93;;
3563;SDS011;1796;52.388;13.096;2023-09-12T03:11:34;14.73;;;13.07;;
3563;SDS011;1796;52.388;13.096;2023-09-12T03:14:01;17.93;;;13.00;;
3563;SDS011;1796;52.388;13.096;2023-09-12T03:16:28;21.47;;;12.90;;
3563;SDS011;1796;52.388;13.096;2023-09-12T03:18:55;17.30;;;12.60;;
3563;SDS011;1796;52.388;13.096;2023-09-12T03:21:22;16.60;;;13.07;;
3563;SDS011;1796;52.388;13.096;2023-09-12T03:23:48;17.70;;;13.13;;
3563;SDS011;1796;52.388;13.096;2023-09-12T03:26:17;24.57;;;13.40;;
3563;SDS011;1796;52.388;13.096;2023-09-12T03:28:44;15.67;;;12.97;;
3563;SDS011;1796;52.388;13.096;2023-09-12T03:31:11;16.37;;;13.03;;
3563;SDS011;1796;52.388;13.096;2023-09-12T03:33:39;26.73;;;12.40;;
3563;SDS011;1796;52.388;13.096;2023-09-12T03:36:07;18.63;;;13.83;;
3563;SDS011;1796;52.388;13.096;2023-09-12T03:38:34;15.90;;;13.03;;
3563;SDS011;1796;52.388;13.096;2023-09-12T03:41:01;16.67;;;12.80;;
3563;SDS011;1796;52.388;13.096;2023-09-12T03:43:30;22.10;;;13.27;;
3563;SDS011;1796;52.388;13.096;2023-09-12T03:45:56;23.60;;;12.83;;
3563;SDS011;1796;52.388;13.096;2023-09-12T03:48:23;16.17;;;13.40;;
3563;SDS011;1796;52.388;13.096;2023-09-12T03:50:50;14.53;;;11.90;;
3563;SDS011;1796;52.388;13.096;2023-09-12T03:53:17;31.77;;;14.20;;
3563;SDS011;1796;52.388;13.096;2023-09-12T03:55:44;27.63;;;14.03;;
3563;SDS011;1796;52.388;13.096;2023-09-12T03:58:11;17.47;;;14.30;;
3563;SDS011;1796;52.388;13.096;2023-09-12T04:00:39;19.10;;;13.40;;
3563;SDS011;1796;52.388;13.096;2023-09-12T04:03:06;29.37;;;14.63;;
3563;SDS011;1796;52.388;13.096;2023-09-12T04:05:33;21.23;;;13.87;;
3563;SDS011;1796;52.388;13.096;2023-09-12T04:08:00;20.30;;;14.37;;
3563;SDS011;1796;52.388;13.096;2023-09-12T04:10:26;23.23;;;13.93;;
3563;SDS011;1796;52.388;13.096;2023-09-12T04:12:53;23.60;;;13.90;;
3563;SDS011;1796;52.388;13.096;2023-09-12T04:15:20;15.40;;;13.60;;
3563;SDS011;1796;52.388;13.096;2023-09-12T04:17:48;14.63;;;13.03;;
3563;SDS011;1796;52.388;13.096;2023-09-12T04:20:15;17.07;;;13.70;;
3563;SDS011;1796;52.388;13.096;2023-09-12T04:22:42;24.13;;;14.27;;
3563;SDS011;1796;52.388;13.096;2023-09-12T04:25:09;19.20;;;13.70;;
3563;SDS011;1796;52.388;13.096;2023-09-12T04:27:36;24.60;;;13.17;;
3563;SDS011;1796;52.388;13.096;2023-09-12T04:30:03;13.37;;;12.03;;
3563;SDS011;1796;52.388;13.096;2023-09-12T04:32:31;18.00;;;14.10;;
3563;SDS011;1796;52.388;13.096;2023-09-12T04:34:59;23.13;;;14.10;;
3563;SDS011;1796;52.388;13.096;2023-09-12T04:37:26;20.73;;;14.20;;
3563;SDS011;1796;52.388;13.096;2023-09-12T04:39:53;19.47;;;14.40;;
3563;SDS011;1796;52.388;13.096;2023-09-12T04:42:19;16.60;;;13.57;;
3563;SDS011;1796;52.388;13.096;2023-09-12T04:44:46;17.63;;;13.97;;
3563;SDS011;1796;52.388;13.096;2023-09-12T04:47:13;18.20;;;14.37;;
3563;SDS011;1796;52.388;13.096;2023-09-12T04:49:40;20.80;;;14.77;;
3563;SDS011;1796;52.388;13.096;2023-09-12T04:52:11;21.77;;;13.50;;
3563;SDS011;1796;52.388;13.096;2023-09-12T04:54:39;19.57;;;13.60;;
3563;SDS011;1796;52.388;13.096;2023-09-12T04:57:07;19.80;;;14.20;;
3563;SDS011;1796;52.388;13.096;2023-09-12T04:59:34;20.80;;;13.10;;
3563;SDS011;1796;52.388;13.096;2023-09-12T05:02:01;15.13;;;13.37;;
3563;SDS011;1796;52.388;13.096;2023-09-12T05:04:28;32.93;;;14.77;;
3563;SDS011;1796;52.388;13.096;2023-09-12T05:06:55;18.60;;;13.13;;
3563;SDS011;1796;52.388;13.096;2023-09-12T05:09:23;23.30;;;12.30;;
3563;SDS011;1796;52.388;13.096;2023-09-12T05:11:50;19.43;;;12.47;;
3563;SDS011;1796;52.388;13.096;2023-09-12T05:14:17;32.97;;;12.50;;
3563;SDS011;1796;52.388;13.096;2023-09-12T05:16:43;20.57;;;13.00;;
3563;SDS011;1796;52.388;13.096;2023-09-12T05:19:10;21.10;;;13.03;;
3563;SDS011;1796;52.388;13.096;2023-09-12T05:21:37;27.63;;;12.60;;
3563;SDS011;1796;52.388;13.096;2023-09-12T05:24:04;19.63;;;12.73;;
3563;SDS011;1796;52.388;13.096;2023-09-12T05:26:33;21.30;;;12.00;;
3563;SDS011;1796;52.388;13.096;2023-09-12T05:28:59;13.53;;;10.90;;
3563;SDS011;1796;52.388;13.096;2023-09-12T05:31:27;18.83;;;13.03;;
3563;SDS011;1796;52.388;13.096;2023-09-12T05:33:54;18.63;;;11.03;;
3563;SDS011;1796;52.388;13.096;2023-09-12T05:36:21;23.60;;;12.57;;
3563;SDS011;1796;52.388;13.096;2023-09-12T05:38:48;22.17;;;11.30;;
3563;SDS011;1796;52.388;13.096;2023-09-12T05:41:14;33.90;;;12.20;;
3563;SDS011;1796;52.388;13.096;2023-09-12T05:43:43;20.40;;;11.40;;
3563;SDS011;1796;52.388;13.096;2023-09-12T05:46:09;16.77;;;11.30;;
3563;SDS011;1796;52.388;13.096;2023-09-12T05:48:36;34.50;;;12.90;;
3563;SDS011;1796;52.388;13.096;2023-09-12T05:51:03;22.43;;;12.00;;
3563;SDS011;1796;52.388;13.096;2023-09-12T05:53:30;26.70;;;11.27;;
3563;SDS011;1796;52.388;13.096;2023-09-12T05:55:57;24.20;;;12.90;;
3563;SDS011;1796;52.388;13.096;2023-09-12T05:58:24;17.33;;;12.00;;
3563;SDS011;1796;52.388;13.096;2023-09-12T06:00:52;31.00;;;12.10;;
3563;SDS011;1796;52.388;13.096;2023-09-12T06:03:19;21.03;;;11.93;;
3563;SDS011;1796;52.388;13.096;2023-09-12T06:05:46;31.80;;;12.07;;
3563;SDS011;1796;52.388;13.096;2023-09-12T06:08:12;21.43;;;12.40;;
3563;SDS011;1796;52.388;13.096;2023-09-12T06:10:39;28.40;;;12.47;;
3563;SDS011;1796;52.388;13.096;2023-09-12T06:13:06;23.60;;;11.80;;
3563;SDS011;1796;52.388;13.096;2023-09-12T06:15:33;20.53;;;12.70;;
3563;SDS011;1796;52.388;13.096;2023-09-12T06:18:01;39.57;;;27.53;;
3563;SDS011;1796;52.388;13.096;2023-09-12T06:20:28;23.60;;;11.27;;
3563;SDS011;1796;52.388;13.096;2023-09-12T06:22:55;23.47;;;12.50;;
3563;SDS011;1796;52.388;13.096;2023-09-12T06:25:22;28.43;;;10.60;;
3563;SDS011;1796;52.388;13.096;2023-09-12T06:27:50;16.83;;;10.13;;
3563;SDS011;1796;52.388;13.096;2023-09-12T06:30:16;13.97;;;10.70;;
3563;SDS011;1796;52.388;13.096;2023-09-12T06:32:43;19.70;;;10.30;;
3563;SDS011;1796;52.388;13.096;2023-09-12T06:35:12;17.23;;;10.37;;
3563;SDS011;1796;52.388;13.096;2023-09-12T06:37:38;22.30;;;10.80;;
3563;SDS011;1796;52.388;13.096;2023-09-12T06:40:06;20.20;;;9.87;;
3563;SDS011;1796;52.388;13.096;2023-09-12T06:42:33;13.70;;;9.43;;
3563;SDS011;1796;52.388;13.096;2023-09-12T06:45:00;16.57;;;9.10;;
3563;SDS011;1796;52.388;13.096;2023-09-12T06:47:27;26.57;;;8.93;;
3563;SDS011;1796;52.388;13.096;2023-09-12T06:49:54;9.73;;;8.33;;
3563;SDS011;1796;52.388;13.096;2023-09-12T06:52:22;29.80;;;8.37;;
3563;SDS011;1796;52.388;13.096;2023-09-12T06:54:49;13.00;;;7.10;;
3563;SDS011;1796;52.388;13.096;2023-09-12T06:57:16;14.27;;;7.77;;
3563;SDS011;1796;52.388;13.096;2023-09-12T06:59:43;15.27;;;8.23;;
3563;SDS011;1796;52.388;13.096;2023-09-12T07:02:10;20.70;;;7.00;;
3563;SDS011;1796;52.388;13.096;2023-09-12T07:04:38;23.33;;;6.90;;
3563;SDS011;1796;52.388;13.096;2023-09-12T07:07:04;17.47;;;7.30;;
3563;SDS011;1796;52.388;13.096;2023-09-12T07:09:33;18.90;;;10.70;;
3563;SDS011;1796;52.388;13.096;2023-09-12T07:11:59;13.23;;;6.53;;
3563;SDS011;1796;52.388;13.096;2023-09-12T07:14:26;20.70;;;7.47;;
3563;SDS011;1796;52.388;13.096;2023-09-12T07:16:54;12.20;;;7.23;;
3563;SDS011;1796;52.388;13.096;2023-09-12T07:19:21;8.47;;;7.20;;
3563;SDS011;1796;52.388;13.096;2023-09-12T07:21:49;26.57;;;7.60;;
3563;SDS011;1796;52.388;13.096;2023-09-12T07:24:16;17.93;;;7.33;;
3563;SDS011;1796;52.388;13.096;2023-09-12T07:26:44;19.03;;;8.27;;
3563;SDS011;1796;52.388;13.096;2023-09-12T07:29:12;21.50;;;6.80;;
3563;SDS011;1796;52.388;13.096;2023-09-12T07:31:38;15.33;;;7.60;;
3563;SDS011;1796;52.388;13.096;2023-09-12T07:34:05;10.20;;;7.13;;
3563;SDS011;1796;52.388;13.096;2023-09-12T07:36:33;18.47;;;7.13;;
3563;SDS011;1796;52.388;13.096;2023-09-12T07:39:00;11.10;;;7.00;;
3563;SDS011;1796;52.388;13.096;2023-09-12T07:41:27;9.23;;;7.57;;
3563;SDS011;1796;52.388;13.096;2023-09-12T07:43:55;18.97;;;7.90;;
3563;SDS011;1796;52.388;13.096;2023-09-12T07:46:22;14.23;;;6.90;;
3563;SDS011;1796;52.388;13.096;2023-09-12T07:48:49;20.73;;;6.70;;
3563;SDS011;1796;52.388;13.096;2023-09-12T07:51:17;15.97;;;6.40;;
3563;SDS011;1796;52.388;13.096;2023-09-12T07:53:44;16.00;;;6.20;;
3563;SDS011;1796;52.388;13.096;2023-09-12T07:56:10;25.17;;;7.40;;
3563;SDS011;1796;52.388;13.096;2023-09-12T07:58:37;8.03;;;5.97;;
3563;SDS011;1796;52.388;13.096;2023-09-12T08:01:06;10.20;;;6.90;;
3563;SDS011;1796;52.388;13.096;2023-09-12T08:03:33;13.67;;;6.60;;
3563;SDS011;1796;52.388;13.096;2023-09-12T08:06:01;21.33;;;6.90;;
3563;SDS011;1796;52.388;13.096;2023-09-12T08:08:28;16.40;;;6.20;;
3563;SDS011;1796;52.388;13.096;2023-09-12T08:10:55;26.33;;;6.63;;
3563;SDS011;1796;52.388;13.096;2023-09-12T08:13:22;11.63;;;5.80;;
3563;SDS011;1796;52.388;13.096;2023-09-12T08:15:49;29.03;;;6.20;;
3563;SDS011;1796;52.388;13.096;2023-09-12T08:18:17;11.60;;;6.50;;
3563;SDS011;1796;52.388;13.096;2023-09-12T08:20:44;16.63;;;6.60;;
3563;SDS011;1796;52.388;13.096;2023-09-12T08:23:11;11.50;;;6.07;;
3563;SDS011;1796;52.388;13.096;2023-09-12T08:25:39;19.33;;;6.87;;
3563;SDS011;1796;52.388;13.096;2023-09-12T08:28:06;16.17;;;7.37;;
3563;SDS011;1796;52.388;13.096;2023-09-12T08:30:32;18.83;;;8.03;;
3563;SDS011;1796;52.388;13.096;2023-09-12T08:32:59;16.77;;;7.30;;
3563;SDS011;1796;52.388;13.096;2023-09-12T08:35:30;22.30;;;7.73;;
3563;SDS011;1796;52.388;13.096;2023-09-12T08:37:57;16.63;;;7.60;;
3563;SDS011;1796;52.388;13.096;2023-09-12T08:40:23;11.17;;;7.50;;
3563;SDS011;1796;52.388;13.096;2023-09-12T08:42:51;21.27;;;8.53;;
3563;SDS011;1796;52.388;13.096;2023-09-12T08:45:18;14.57;;;7.87;;
3563;SDS011;1796;52.388;13.096;2023-09-12T08:47:48;18.77;;;7.37;;
3563;SDS011;1796;52.388;13.096;2023-09-12T08:50:16;28.80;;;8.83;;
3563;SDS011;1796;52.388;13.096;2023-09-12T08:52:45;31.27;;;8.00;;
3563;SDS011;1796;52.388;13.096;2023-09-12T08:55:13;18.20;;;8.43;;
3563;SDS011;1796;52.388;13.096;2023-09-12T08:57:40;19.67;;;8.37;;
3563;SDS011;1796;52.388;13.096;2023-09-12T09:00:09;21.30;;;8.63;;
3563;SDS011;1796;52.388;13.096;2023-09-12T09:02:38;15.53;;;7.97;;
3563;SDS011;1796;52.388;13.096;2023-09-12T09:05:06;14.33;;;8.57;;
3563;SDS011;1796;52.388;13.096;2023-09-12T09:07:34;33.30;;;9.33;;
3563;SDS011;1796;52.388;13.096;2023-09-12T09:10:05;24.03;;;9.33;;
3563;SDS011;1796;52.388;13.096;2023-09-12T09:12:33;24.17;;;9.10;;
3563;SDS011;1796;52.388;13.096;2023-09-12T09:17:49;21.07;;;8.90;;
3563;SDS011;1796;52.388;13.096;2023-09-12T09:20:27;20.90;;;10.20;;
3563;SDS011;1796;52.388;13.096;2023-09-12T09:22:56;20.73;;;9.50;;
3563;SDS011;1796;52.388;13.096;2023-09-12T09:25:25;26.07;;;9.90;;
3563;SDS011;1796;52.388;13.096;2023-09-12T09:27:52;32.87;;;9.93;;
3563;SDS011;1796;52.388;13.096;2023-09-12T09:30:22;18.87;;;9.93;;
3563;SDS011;1796;52.388;13.096;2023-09-12T09:33:06;20.17;;;9.33;;
3563;SDS011;1796;52.388;13.096;2023-09-12T09:35:33;30.10;;;8.37;;
3563;SDS011;1796;52.388;13.096;2023-09-12T09:38:00;17.63;;;9.37;;
3563;SDS011;1796;52.388;13.096;2023-09-12T09:40:29;35.43;;;8.60;;
3563;SDS011;1796;52.388;13.096;2023-09-12T09:42:58;25.50;;;9.43;;
3563;SDS011;1796;52.388;13.096;2023-09-12T09:45:26;31.80;;;9.90;;
3563;SDS011;1796;52.388;13.096;2023-09-12T09:47:56;30.33;;;9.80;;
3563;SDS011;1796;52.388;13.096;2023-09-12T09:50:23;17.23;;;8.57;;
3563;SDS011;1796;52.388;13.096;2023-09-12T09:52:53;22.07;;;7.90;;
3563;SDS011;1796;52.388;13.096;2023-09-12T09:55:21;18.53;;;8.27;;
3563;SDS011;1796;52.388;13.096;2023-09-12T09:57:49;22.17;;;8.97;;
3563;SDS011;1796;52.388;13.096;2023-09-12T10:00:17;15.83;;;8.33;;
3563;SDS011;1796;52.388;13.096;2023-09-12T10:02:45;18.80;;;8.90;;
3563;SDS011;1796;52.388;13.096;2023-09-12T10:05:15;29.07;;;8.57;;
3563;SDS011;1796;52.388;13.096;2023-09-12T10:07:43;22.50;;;8.27;;
3563;SDS011;1796;52.388;13.096;2023-09-12T10:10:15;14.63;;;8.10;;
3563;SDS011;1796;52.388;13.096;2023-09-12T10:12:44;23.33;;;8.50;;
3563;SDS011;1796;52.388;13.096;2023-09-12T10:15:18;18.73;;;8.00;;
3563;SDS011;1796;52.388;13.096;2023-09-12T10:17:48;24.50;;;7.10;;
3563;SDS011;1796;52.388;13.096;2023-09-12T10:20:20;17.17;;;8.67;;
3563;SDS011;1796;52.388;13.096;2023-09-12T10:22:52;19.83;;;7.90;;
3563;SDS011;1796;52.388;13.096;2023-09-12T10:25:28;18.87;;;7.40;;
3563;SDS011;1796;52.388;13.096;2023-09-12T10:27:56;15.70;;;7.27;;
3563;SDS011;1796;52.388;13.096;2023-09-12T10:30:24;14.33;;;7.30;;
3563;SDS011;1796;52.388;13.096;2023-09-12T10:32:51;19.03;;;6.37;;
3563;SDS011;1796;52.388;13.096;2023-09-12T10:35:18;17.33;;;6.43;;
3563;SDS011;1796;52.388;13.096;2023-09-12T10:37:46;15.57;;;6.33;;
3563;SDS011;1796;52.388;13.096;2023-09-12T10:40:17;7.27;;;5.00;;
3563;SDS011;1796;52.388;13.096;2023-09-12T10:42:45;7.03;;;4.63;;
3563;SDS011;1796;52.388;13.096;2023-09-12T10:45:15;13.63;;;4.90;;
3563;SDS011;1796;52.388;13.096;2023-09-12T10:47:42;6.93;;;5.10;;
3563;SDS011;1796;52.388;13.096;2023-09-12T10:50:09;17.17;;;5.30;;
3563;SDS011;1796;52.388;13.096;2023-09-12T10:52:35;5.93;;;5.43;;
3563;SDS011;1796;52.388;13.096;2023-09-12T10:55:05;8.27;;;5.00;;
3563;SDS011;1796;52.388;13.096;2023-09-12T10:57:32;13.10;;;5.63;;
3563;SDS011;1796;52.388;13.096;2023-09-12T11:00:12;23.30;;;5.47;;
3563;SDS011;1796;52.388;13.096;2023-09-12T11:02:41;15.63;;;5.50;;
3563;SDS011;1796;52.388;13.096;2023-09-12T11:08:02;15.20;;;6.00;;
3563;SDS011;1796;52.388;13.096;2023-09-12T11:10:30;22.63;;;5.60;;
3563;SDS011;1796;52.388;13.096;2023-09-12T11:12:57;13.93;;;5.47;;
3563;SDS011;1796;52.388;13.096;2023-09-12T11:15:25;16.43;;;6.10;;
3563;SDS011;1796;52.388;13.096;2023-09-12T11:18:01;11.30;;;5.43;;
3563;SDS011;1796;52.388;13.096;2023-09-12T11:20:48;10.33;;;5.07;;
3563;SDS011;1796;52.388;13.096;2023-09-12T11:23:17;6.83;;;5.13;;
3563;SDS011;1796;52.388;13.096;2023-09-12T11:25:44;6.67;;;5.20;;
3563;SDS011;1796;52.388;13.096;2023-09-12T11:28:11;12.37;;;5.27;;
3563;SDS011;1796;52.388;13.096;2023-09-12T11:30:38;12.20;;;4.83;;
3563;SDS011;1796;52.388;13.096;2023-09-12T11:33:24;13.53;;;5.57;;
3563;SDS011;1796;52.388;13.096;2023-09-12T11:35:52;12.40;;;5.00;;
3563;SDS011;1796;52.388;13.096;2023-09-12T11:38:27;8.00;;;4.83;;
3563;SDS011;1796;52.388;13.096;2023-09-12T11:40:54;8.27;;;5.13;;
3563;SDS011;1796;52.388;13.096;2023-09-12T11:43:22;10.33;;;4.90;;
3563;SDS011;1796;52.388;13.096;2023-09-12T11:45:50;10.20;;;4.80;;
3563;SDS011;1796;52.388;13.096;2023-09-12T11:48:18;7.10;;;5.50;;
3563;SDS011;1796;52.388;13.096;2023-09-12T11:50:51;6.47;;;5.00;;
3563;SDS011;1796;52.388;13.096;2023-09-12T11:53:19;16.43;;;5.30;;
3563;SDS011;1796;52.388;13.096;2023-09-12T11:55:50;14.43;;;5.40;;
3563;SDS011;1796;52.388;13.096;2023-09-12T11:58:19;8.80;;;5.00;;
3563;SDS011;1796;52.388;13.096;2023-09-12T12:00:47;7.47;;;4.63;;
3563;SDS011;1796;52.388;13.096;2023-09-12T12:03:16;9.20;;;5.00;;
3563;SDS011;1796;52.388;13.096;2023-09-12T12:05:44;8.17;;;4.83;;
3563;SDS011;1796;52.388;13.096;2023-09-12T12:08:13;18.37;;;5.10;;
3563;SDS011;1796;52.388;13.096;2023-09-12T12:10:42;8.70;;;6.10;;
3563;SDS011;1796;52.388;13.096;2023-09-12T12:13:10;6.83;;;5.30;;
3563;SDS011;1796;52.388;13.096;2023-09-12T12:15:38;10.93;;;4.43;;
3563;SDS011;1796;52.388;13.096;2023-09-12T12:18:05;9.33;;;4.77;;
3563;SDS011;1796;52.388;13.096;2023-09-12T12:20:32;12.77;;;5.10;;
3563;SDS011;1796;52.388;13.096;2023-09-12T12:22:58;9.00;;;5.00;;
3563;SDS011;1796;52.388;13.096;2023-09-12T12:25:31;6.70;;;4.50;;
3563;SDS011;1796;52.388;13.096;2023-09-12T12:27:59;10.50;;;4.87;;
3563;SDS011;1796;52.388;13.096;2023-09-12T12:30:25;14.83;;;5.33;;
3563;SDS011;1796;52.388;13.096;2023-09-12T12:32:56;9.37;;;4.70;;
3563;SDS011;1796;52.388;13.096;2023-09-12T12:35:23;16.70;;;5.57;;
3563;SDS011;1796;52.388;13.096;2023-09-12T12:37:53;10.97;;;5.47;;
3563;SDS011;1796;52.388;13.096;2023-09-12T12:40:21;10.73;;;4.83;;
3563;SDS011;1796;52.388;13.096;2023-09-12T12:42:49;14.57;;;4.60;;
3563;SDS011;1796;52.388;13.096;2023-09-12T12:45:17;16.50;;;5.10;;
3563;SDS011;1796;52.388;13.096;2023-09-12T12:47:45;9.03;;;4.70;;
3563;SDS011;1796;52.388;13.096;2023-09-12T12:50:13;10.83;;;5.30;;
3563;SDS011;1796;52.388;13.096;2023-09-12T12:52:41;11.70;;;5.30;;
3563;SDS011;1796;52.388;13.096;2023-09-12T12:55:09;8.13;;;5.20;;
3563;SDS011;1796;52.388;13.096;2023-09-12T12:57:37;9.40;;;4.93;;
3563;SDS011;1796;52.388;13.096;2023-09-12T13:00:09;11.33;;;4.90;;
3563;SDS011;1796;52.388;13.096;2023-09-12T13:02:37;13.23;;;5.00;;
3563;SDS011;1796;52.388;13.096;2023-09-12T13:05:06;10.73;;;5.80;;
3563;SDS011;1796;52.388;13.096;2023-09-12T13:07:45;12.80;;;4.33;;
3563;SDS011;1796;52.388;13.096;2023-09-12T13:10:12;11.97;;;5.10;;
3563;SDS011;1796;52.388;13.096;2023-09-12T13:12:38;26.23;;;5.33;;
3563;SDS011;1796;52.388;13.096;2023-09-12T13:15:06;11.30;;;5.13;;
3563;SDS011;1796;52.388;13.096;2023-09-12T13:17:35;8.27;;;4.80;;
3563;SDS011;1796;52.388;13.096;2023-09-12T13:20:02;13.20;;;6.53;;
3563;SDS011;1796;52.388;13.096;2023-09-12T13:22:30;11.40;;;5.70;;
3563;SDS011;1796;52.388;13.096;2023-09-12T13:24:56;8.53;;;4.90;;
3563;SDS011;1796;52.388;13.096;2023-09-12T13:27:23;14.47;;;5.37;;
3563;SDS011;1796;52.388;13.096;2023-09-12T13:29:50;11.73;;;4.83;;
3563;SDS011;1796;52.388;13.096;2023-09-12T13:32:17;13.00;;;4.80;;
3563;SDS011;1796;52.388;13.096;2023-09-12T13:34:45;14.87;;;5.43;;
3563;SDS011;1796;52.388;13.096;2023-09-12T13:37:12;12.23;;;5.20;;
3563;SDS011;1796;52.388;13.096;2023-09-12T13:39:41;19.90;;;6.67;;
3563;SDS011;1796;52.388;13.096;2023-09-12T13:42:12;18.60;;;4.57;;
3563;SDS011;1796;52.388;13.096;2023-09-12T13:44:39;16.10;;;5.30;;
3563;SDS011;1796;52.388;13.096;2023-09-12T13:47:06;14.80;;;4.80;;
3563;SDS011;1796;52.388;13.096;2023-09-12T13:49:33;34.00;;;5.33;;
3563;SDS011;1796;52.388;13.096;2023-09-12T13:52:01;14.20;;;4.80;;
3563;SDS011;1796;52.388;13.096;2023-09-12T13:54:28;14.37;;;4.33;;
3563;SDS011;1796;52.388;13.096;2023-09-12T13:56:55;20.13;;;5.80;;
3563;SDS011;1796;52.388;13.096;2023-09-12T13:59:22;18.00;;;5.37;;
3563;SDS011;1796;52.388;13.096;2023-09-12T14:01:49;10.97;;;5.10;;
3563;SDS011;1796;52.388;13.096;2023-09-12T14:04:16;12.43;;;4.63;;
3563;SDS011;1796;52.388;13.096;2023-09-12T14:06:42;26.33;;;5.90;;
3563;SDS011;1796;52.388;13.096;2023-09-12T14:09:11;16.13;;;4.60;;
3563;SDS011;1796;52.388;13.096;2023-09-12T14:11:37;22.13;;;6.00;;
3563;SDS011;1796;52.388;13.096;2023-09-12T14:14:04;11.83;;;4.90;;
3563;SDS011;1796;52.388;13.096;2023-09-12T14:16:31;22.23;;;4.50;;
3563;SDS011;1796;52.388;13.096;2023-09-12T14:18:58;18.73;;;4.60;;
3563;SDS011;1796;52.388;13.096;2023-09-12T14:21:25;11.97;;;4.30;;
3563;SDS011;1796;52.388;13.096;2023-09-12T14:23:52;5.77;;;3.40;;
3563;SDS011;1796;52.388;13.096;2023-09-12T14:26:20;8.43;;;3.63;;
3563;SDS011;1796;52.388;13.096;2023-09-12T14:28:47;8.73;;;3.20;;
3563;SDS011;1796;52.388;13.096;2023-09-12T14:31:14;3.73;;;3.33;;
3563;SDS011;1796;52.388;13.096;2023-09-12T14:33:42;4.17;;;3.77;;
3563;SDS011;1796;52.388;13.096;2023-09-12T14:36:08;10.70;;;3.97;;
3563;SDS011;1796;52.388;13.096;2023-09-12T14:38:35;6.73;;;3.63;;
3563;SDS011;1796;52.388;13.096;2023-09-12T14:41:02;12.17;;;3.80;;
3563;SDS011;1796;52.388;13.096;2023-09-12T14:43:30;6.70;;;3.53;;
3563;SDS011;1796;52.388;13.096;2023-09-12T14:45:57;9.23;;;4.43;;
3563;SDS011;1796;52.388;13.096;2023-09-12T14:48:24;9.20;;;3.90;;
3563;SDS011;1796;52.388;13.096;2023-09-12T14:50:50;8.70;;;4.00;;
3563;SDS011;1796;52.388;13.096;2023-09-12T14:53:17;4.40;;;4.07;;
3563;SDS011;1796;52.388;13.096;2023-09-12T14:55:44;6.63;;;3.97;;